Time;durP1;ratioP1;P1;durP2;ratioP2;P2;SDS_P1;SDS_P2;PMS_P1;PMS_P2;Temp;Humidity;BMP_temperature;BMP_pressure;BME280_temperature;BME280_humidity;BME280_pressure;Samples;Min_cycle;Max_cycle;Signal;HPM_P1;HPM_P2
2022/11/08 00:02:02;;;;;;;4.83;2.47;;;11.20;99.90;;;;;;4968793;28;20468;-51
2022/11/08 00:04:29;;;;;;;4.87;2.30;;;11.20;99.90;;;;;;4962946;28;20489;-51
2022/11/08 00:15:09;;;;;;;6.20;2.67;;;11.00;99.90;;;;;;4967144;28;20573;-51
2022/11/08 00:17:36;;;;;;;3.97;2.30;;;11.00;99.90;;;;;;4967418;28;20581;-51
2022/11/08 00:20:04;;;;;;;8.03;2.37;;;11.00;99.90;;;;;;4967697;28;20569;-53
2022/11/08 00:22:32;;;;;;;7.70;2.17;;;11.00;99.90;;;;;;4970371;28;20501;-54
2022/11/08 00:24:58;;;;;;;4.00;2.20;;;10.90;99.90;;;;;;4970694;28;21027;-54
2022/11/08 00:27:25;;;;;;;3.13;2.43;;;10.90;99.90;;;;;;4969406;28;20580;-54
2022/11/08 00:29:52;;;;;;;4.27;2.43;;;10.90;99.90;;;;;;4964910;28;20489;-53
2022/11/08 00:32:21;;;;;;;2.93;1.70;;;10.80;99.90;;;;;;4971558;28;20543;-54
2022/11/08 00:34:48;;;;;;;3.90;2.00;;;10.80;99.90;;;;;;4969219;28;20957;-53
2022/11/08 00:37:15;;;;;;;6.43;2.27;;;10.70;99.90;;;;;;4971614;28;20978;-53
2022/11/08 00:39:43;;;;;;;4.27;2.00;;;10.70;99.90;;;;;;4964941;28;21061;-53
2022/11/08 00:42:10;;;;;;;2.73;1.97;;;10.70;99.90;;;;;;4970089;28;20914;-53
2022/11/08 00:44:36;;;;;;;6.43;2.50;;;10.80;99.90;;;;;;4971190;28;20551;-53
2022/11/08 00:47:03;;;;;;;12.67;2.90;;;10.80;99.90;;;;;;4973481;28;20501;-53
2022/11/08 00:49:30;;;;;;;7.20;2.70;;;10.80;99.90;;;;;;4969249;28;20576;-53
2022/11/08 00:51:57;;;;;;;7.20;2.73;;;10.80;99.90;;;;;;4967409;28;20548;-53
2022/11/08 00:54:23;;;;;;;5.83;2.80;;;10.70;99.90;;;;;;4974834;28;20576;-54
2022/11/08 00:56:51;;;;;;;3.40;2.50;;;10.80;99.90;;;;;;4969876;28;20498;-53
2022/11/08 00:59:19;;;;;;;5.90;2.80;;;10.80;99.90;;;;;;4969506;28;20573;-52
2022/11/08 01:01:47;;;;;;;4.10;2.33;;;10.90;99.90;;;;;;4970286;28;20521;-53
2022/11/08 01:04:15;;;;;;;4.10;2.80;;;10.90;99.90;;;;;;4967977;28;20962;-53
2022/11/08 01:06:42;;;;;;;4.93;2.47;;;10.90;99.90;;;;;;4970150;28;20620;-53
2022/11/08 01:09:09;;;;;;;3.57;2.83;;;10.90;99.90;;;;;;4964016;28;20558;-53
2022/11/08 01:11:37;;;;;;;8.23;2.20;;;10.90;99.90;;;;;;4971174;28;20734;-53
2022/11/08 01:14:05;;;;;;;7.43;3.27;;;11.00;99.90;;;;;;4967328;28;20553;-53
2022/11/08 01:16:33;;;;;;;5.17;2.63;;;10.90;99.90;;;;;;4972389;28;20557;-53
2022/11/08 01:19:01;;;;;;;14.10;2.73;;;10.90;99.90;;;;;;4969711;28;22233;-53
2022/11/08 01:21:28;;;;;;;18.93;2.60;;;10.90;99.90;;;;;;4969104;28;20921;-54
2022/11/08 01:23:55;;;;;;;8.53;3.07;;;10.80;99.90;;;;;;4973411;28;20465;-54
2022/11/08 01:26:23;;;;;;;4.80;2.10;;;10.80;99.90;;;;;;4967790;28;20557;-53
2022/11/08 01:28:50;;;;;;;9.43;2.20;;;10.80;99.90;;;;;;4964916;28;20971;-53
2022/11/08 01:31:20;;;;;;;8.80;2.13;;;10.80;99.90;;;;;;4967032;28;20870;-53
2022/11/08 01:33:47;;;;;;;6.60;2.47;;;10.70;99.90;;;;;;4970026;28;20517;-54
2022/11/08 01:36:17;;;;;;;3.40;2.37;;;10.70;99.90;;;;;;4965328;28;20887;-53
2022/11/08 01:38:44;;;;;;;4.73;2.73;;;10.60;99.90;;;;;;4967500;28;20524;-53
2022/11/08 01:41:13;;;;;;;2.53;2.00;;;10.60;99.90;;;;;;4968447;28;20596;-54
2022/11/08 01:43:41;;;;;;;4.00;2.20;;;10.70;99.90;;;;;;4967561;28;20476;-52
2022/11/08 01:46:32;;;;;;;4.67;2.77;;;10.60;99.90;;;;;;4965563;28;20536;-52
2022/11/08 01:49:08;;;;;;;6.40;2.53;;;10.70;99.90;;;;;;4968747;28;20470;-53
2022/11/08 01:51:39;;;;;;;8.43;2.00;;;10.70;99.90;;;;;;4970653;28;20485;-53
2022/11/08 01:54:10;;;;;;;4.53;2.20;;;10.70;99.90;;;;;;4965698;28;20544;-54
2022/11/08 01:56:38;;;;;;;4.00;2.20;;;10.80;99.90;;;;;;4971376;28;20560;-52
2022/11/08 01:59:09;;;;;;;3.77;2.27;;;10.80;99.90;;;;;;4971810;28;20615;-54
2022/11/08 02:01:37;;;;;;;4.80;2.87;;;10.80;99.90;;;;;;4968279;28;20492;-53
2022/11/08 02:04:05;;;;;;;8.77;2.93;;;10.80;99.90;;;;;;4968605;28;20951;-52
2022/11/08 02:06:33;;;;;;;6.20;2.77;;;10.80;99.90;;;;;;4971401;28;20462;-52
2022/11/08 02:09:03;;;;;;;8.37;3.37;;;10.90;99.90;;;;;;4967842;28;20465;-53
2022/11/08 02:11:31;;;;;;;4.27;2.33;;;10.80;99.90;;;;;;4970579;28;20521;-53
2022/11/08 02:13:58;;;;;;;6.37;2.20;;;10.90;99.90;;;;;;4962667;28;20592;-54
2022/11/08 02:16:24;;;;;;;5.50;2.40;;;10.90;99.90;;;;;;4963300;28;20870;-53
2022/11/08 02:18:52;;;;;;;6.60;2.47;;;10.90;99.90;;;;;;4970028;28;20581;-53
2022/11/08 02:21:26;;;;;;;6.73;2.43;;;10.80;99.90;;;;;;4970634;28;20543;-53
2022/11/08 02:23:56;;;;;;;2.33;2.00;;;10.70;99.90;;;;;;4968863;28;22247;-53
2022/11/08 02:26:25;;;;;;;9.40;2.27;;;10.80;99.90;;;;;;4965997;28;20549;-53
2022/11/08 02:28:52;;;;;;;10.33;2.57;;;10.80;99.90;;;;;;4969127;28;20949;-53
2022/11/08 02:31:19;;;;;;;6.77;2.63;;;10.80;99.90;;;;;;4966311;28;20572;-53
2022/11/08 02:33:47;;;;;;;3.43;2.27;;;10.80;99.90;;;;;;4965304;28;20535;-54
2022/11/08 02:36:16;;;;;;;4.90;2.53;;;10.80;99.90;;;;;;4970041;28;20589;-54
2022/11/08 02:38:46;;;;;;;5.43;1.90;;;10.90;99.90;;;;;;4970712;28;20512;-54
2022/11/08 02:41:14;;;;;;;6.83;2.63;;;10.90;99.90;;;;;;4970363;28;20672;-53
2022/11/08 02:43:41;;;;;;;4.10;2.23;;;10.90;99.90;;;;;;4972237;28;20555;-53
2022/11/08 02:46:07;;;;;;;4.27;2.23;;;10.90;99.90;;;;;;4969045;28;20492;-53
2022/11/08 02:48:34;;;;;;;7.87;2.80;;;10.90;99.90;;;;;;4966805;28;20552;-53
2022/11/08 02:51:00;;;;;;;6.07;2.30;;;10.90;99.90;;;;;;4970900;28;20552;-53
2022/11/08 02:53:27;;;;;;;3.63;2.50;;;10.90;99.90;;;;;;4965241;28;20592;-53
2022/11/08 02:55:54;;;;;;;4.10;2.17;;;10.90;99.90;;;;;;4966273;28;20579;-53
2022/11/08 02:58:22;;;;;;;8.43;2.40;;;10.90;99.90;;;;;;4972745;28;21030;-53
2022/11/08 03:00:49;;;;;;;8.33;2.40;;;10.90;99.90;;;;;;4958229;28;20485;-53
2022/11/08 03:03:15;;;;;;;7.60;2.70;;;10.90;99.90;;;;;;4961250;28;20581;-53
2022/11/08 03:05:42;;;;;;;5.13;1.90;;;10.90;99.90;;;;;;4966659;28;20548;-53
2022/11/08 03:08:09;;;;;;;5.90;2.23;;;10.90;99.90;;;;;;4964368;28;20466;-53
2022/11/08 03:10:35;;;;;;;8.03;2.77;;;10.90;99.90;;;;;;4970383;28;20998;-54
2022/11/08 03:13:05;;;;;;;3.67;2.23;;;10.90;99.90;;;;;;4967810;28;20971;-53
2022/11/08 03:15:33;;;;;;;5.13;2.53;;;10.80;99.90;;;;;;4967424;28;20572;-53
2022/11/08 03:18:01;;;;;;;3.37;1.90;;;10.90;99.90;;;;;;4970677;28;20465;-53
2022/11/08 03:20:27;;;;;;;4.60;1.77;;;10.90;99.90;;;;;;4970170;28;20518;-53
2022/11/08 03:22:58;;;;;;;3.70;2.10;;;10.90;99.90;;;;;;4960879;28;20557;-54
2022/11/08 03:25:25;;;;;;;5.40;1.93;;;11.00;99.90;;;;;;4960896;28;20458;-54
2022/11/08 03:27:51;;;;;;;3.17;2.33;;;11.00;99.90;;;;;;4963375;28;20500;-53
2022/11/08 03:30:18;;;;;;;10.60;2.50;;;11.00;99.90;;;;;;4964612;28;20509;-54
2022/11/08 03:32:46;;;;;;;6.93;2.30;;;11.00;99.90;;;;;;4964451;28;20508;-54
2022/11/08 03:35:13;;;;;;;6.53;2.90;;;11.00;99.90;;;;;;4966200;28;20511;-53
2022/11/08 03:37:40;;;;;;;6.03;2.17;;;10.90;99.90;;;;;;4965738;28;20517;-52
2022/11/08 03:40:08;;;;;;;8.53;2.17;;;10.90;99.90;;;;;;4968904;28;20615;-52
2022/11/08 03:42:34;;;;;;;4.60;2.20;;;10.90;99.90;;;;;;4964409;28;20472;-52
2022/11/08 03:45:01;;;;;;;8.23;2.90;;;10.90;99.90;;;;;;4965248;28;20585;-52
2022/11/08 03:47:28;;;;;;;9.73;2.50;;;10.90;99.90;;;;;;4971069;28;20501;-52
2022/11/08 03:49:55;;;;;;;5.40;2.40;;;10.90;99.90;;;;;;4971640;28;20489;-52
2022/11/08 03:52:22;;;;;;;11.53;2.60;;;10.90;99.90;;;;;;4967081;28;20564;-52
2022/11/08 03:54:48;;;;;;;5.80;2.63;;;10.90;99.90;;;;;;4965463;28;20561;-51
2022/11/08 03:57:15;;;;;;;7.17;2.87;;;10.80;99.90;;;;;;4970112;28;20497;-52
2022/11/08 03:59:42;;;;;;;2.27;1.90;;;10.80;99.90;;;;;;4970223;28;20575;-52
2022/11/08 04:02:08;;;;;;;3.80;2.03;;;10.70;99.90;;;;;;4962366;28;20494;-52
2022/11/08 04:04:35;;;;;;;8.83;2.60;;;10.70;99.90;;;;;;4970714;28;21065;-52
2022/11/08 04:07:03;;;;;;;4.10;2.50;;;10.60;99.90;;;;;;4973682;28;20457;-52
2022/11/08 04:09:29;;;;;;;6.57;2.80;;;10.50;99.90;;;;;;4968626;28;20560;-52
2022/11/08 04:21:17;;;;;;;3.13;2.07;;;10.40;99.90;;;;;;4973093;28;20452;-52
2022/11/08 04:22:57;;;;;;;11.00;2.93;;;10.30;99.90;;;;;;4970026;28;20596;-52
2022/11/08 04:25:24;;;;;;;5.07;2.57;;;10.20;99.90;;;;;;4973610;28;20603;-52
2022/11/08 04:27:50;;;;;;;3.90;2.03;;;10.20;99.90;;;;;;4969823;28;20556;-53
2022/11/08 04:30:17;;;;;;;5.17;2.30;;;10.10;99.90;;;;;;4972409;28;20568;-53
2022/11/08 04:32:43;;;;;;;4.30;2.27;;;10.10;99.90;;;;;;4967468;28;20492;-52
2022/11/08 04:35:10;;;;;;;5.70;2.73;;;10.10;99.90;;;;;;4970980;28;20501;-52
2022/11/08 04:37:37;;;;;;;8.43;2.10;;;10.00;99.90;;;;;;4971531;28;20504;-52
2022/11/08 04:40:05;;;;;;;5.80;2.53;;;10.00;99.90;;;;;;4967272;28;20520;-52
2022/11/08 04:42:32;;;;;;;9.50;2.60;;;9.90;99.90;;;;;;4972840;28;20497;-52
2022/11/08 04:44:58;;;;;;;10.73;2.60;;;9.90;99.90;;;;;;4967687;28;20531;-51
2022/11/08 04:47:25;;;;;;;4.50;2.40;;;9.90;99.90;;;;;;4970007;28;20492;-51
2022/11/08 04:49:53;;;;;;;7.17;2.77;;;9.90;99.90;;;;;;4970142;28;20556;-51
2022/11/08 04:52:19;;;;;;;4.37;2.17;;;9.90;99.90;;;;;;4967502;28;20465;-51
2022/11/08 04:54:46;;;;;;;4.90;2.43;;;9.80;99.90;;;;;;4968417;28;20497;-51
2022/11/08 04:57:15;;;;;;;8.27;2.77;;;9.80;99.90;;;;;;4968900;28;20584;-51
2022/11/08 04:59:41;;;;;;;4.50;1.93;;;9.80;99.90;;;;;;4975567;28;20539;-52
2022/11/08 05:02:09;;;;;;;4.10;2.10;;;9.70;99.90;;;;;;4973359;28;20504;-52
2022/11/08 05:04:36;;;;;;;11.53;2.73;;;9.80;99.90;;;;;;4971157;28;20486;-52
2022/11/08 05:07:02;;;;;;;5.17;2.23;;;9.70;99.90;;;;;;4973447;28;20465;-52
2022/11/08 05:09:29;;;;;;;7.70;2.33;;;9.70;99.90;;;;;;4972942;28;20497;-52
2022/11/08 05:11:55;;;;;;;2.70;2.17;;;9.60;99.90;;;;;;4972997;28;20534;-52
2022/11/08 05:14:23;;;;;;;5.40;2.97;;;9.60;99.90;;;;;;4968825;28;20548;-52
2022/11/08 05:16:50;;;;;;;3.77;2.47;;;9.50;99.90;;;;;;4968344;28;20500;-52
2022/11/08 05:23:22;;;;;;;2.20;2.00;;;9.50;99.90;;;;;;4971016;28;20505;-52
2022/11/08 05:24:52;;;;;;;4.93;2.80;;;9.50;99.90;;;;;;4913519;28;20539;-51
2022/11/08 05:27:19;;;;;;;4.30;2.70;;;9.40;99.90;;;;;;4969971;28;20557;-51
2022/11/08 05:29:47;;;;;;;8.93;3.13;;;9.40;99.90;;;;;;4970102;28;20516;-51
2022/11/08 05:32:13;;;;;;;6.33;2.63;;;9.50;99.90;;;;;;4965405;28;20502;-51
2022/11/08 05:34:40;;;;;;;11.87;3.40;;;9.50;99.90;;;;;;4969483;28;20489;-51
2022/11/08 05:37:06;;;;;;;6.13;2.30;;;9.50;99.90;;;;;;4963988;28;20580;-52
2022/11/08 05:39:33;;;;;;;7.07;2.73;;;9.50;99.90;;;;;;4970723;28;20485;-52
2022/11/08 05:41:59;;;;;;;6.20;2.67;;;9.50;99.90;;;;;;5004746;23;20588;-51
2022/11/08 05:44:26;;;;;;;6.60;3.93;;;9.50;99.90;;;;;;4984207;28;20566;-53
2022/11/08 05:46:54;;;;;;;7.27;2.70;;;9.40;99.90;;;;;;4986700;28;21030;-54
2022/11/08 05:49:20;;;;;;;7.70;2.87;;;9.40;99.90;;;;;;4990390;28;20492;-53
2022/11/08 05:51:47;;;;;;;7.23;2.60;;;9.40;99.90;;;;;;4975111;28;20580;-53
2022/11/08 05:54:14;;;;;;;4.13;3.23;;;9.30;99.90;;;;;;4983427;28;20560;-53
2022/11/08 05:56:40;;;;;;;8.27;3.00;;;9.30;99.90;;;;;;4981999;28;20512;-53
2022/11/08 05:59:07;;;;;;;4.50;2.80;;;9.30;99.90;;;;;;4976350;28;20527;-53
2022/11/08 06:01:34;;;;;;;3.93;2.47;;;9.20;99.90;;;;;;4982211;28;20481;-54
2022/11/08 06:04:01;;;;;;;6.80;5.40;;;9.20;99.90;;;;;;4975961;28;20552;-54
2022/11/08 06:06:28;;;;;;;8.43;2.67;;;9.20;99.90;;;;;;4988812;28;20492;-54
2022/11/08 06:08:55;;;;;;;5.00;3.00;;;9.20;99.90;;;;;;4977438;28;20457;-54
2022/11/08 06:11:23;;;;;;;6.30;2.33;;;9.10;99.90;;;;;;4976850;28;21048;-54
2022/11/08 06:13:50;;;;;;;5.17;2.43;;;9.20;99.90;;;;;;4986536;28;20852;-55
2022/11/08 06:16:18;;;;;;;10.70;3.10;;;9.20;99.90;;;;;;4982720;28;20480;-55
2022/11/08 06:18:45;;;;;;;4.90;2.70;;;9.10;99.90;;;;;;4981974;28;20583;-55
2022/11/08 06:21:15;;;;;;;6.20;3.20;;;9.20;99.90;;;;;;4973417;28;20489;-55
2022/11/08 06:23:42;;;;;;;10.50;3.10;;;9.20;99.90;;;;;;4976951;28;20490;-56
2022/11/08 06:26:09;;;;;;;3.97;2.77;;;9.20;99.90;;;;;;4972326;28;20457;-54
2022/11/08 06:28:36;;;;;;;11.20;2.90;;;9.10;99.90;;;;;;4979618;28;20500;-55
2022/11/08 06:31:03;;;;;;;9.10;2.83;;;9.20;99.20;;;;;;4978477;28;20520;-55
2022/11/08 06:33:31;;;;;;;5.97;3.10;;;9.20;98.10;;;;;;4982724;28;20495;-55
2022/11/08 06:35:58;;;;;;;4.13;2.70;;;9.20;97.60;;;;;;4990277;28;20508;-54
2022/11/08 06:38:26;;;;;;;7.60;2.90;;;9.20;97.00;;;;;;4985534;28;20499;-55
2022/11/08 06:40:52;;;;;;;5.30;2.70;;;9.20;95.90;;;;;;4980823;28;20469;-57
2022/11/08 06:43:19;;;;;;;3.10;2.17;;;9.10;95.60;;;;;;4989315;28;20500;-58
2022/11/08 06:45:46;;;;;;;9.90;3.27;;;9.10;95.20;;;;;;4987657;28;21034;-58
2022/11/08 06:48:12;;;;;;;8.60;3.43;;;9.10;94.00;;;;;;4984834;28;20839;-58
2022/11/08 06:50:39;;;;;;;3.97;2.63;;;9.10;93.70;;;;;;4981641;28;20508;-58
2022/11/08 06:53:07;;;;;;;6.50;2.83;;;9.10;92.30;;;;;;4987871;28;20508;-58
2022/11/08 06:55:36;;;;;;;5.27;2.70;;;9.10;91.80;;;;;;4978140;28;20520;-57
2022/11/08 06:58:03;;;;;;;6.33;3.27;;;9.00;91.60;;;;;;4978756;28;20493;-57
2022/11/08 07:00:30;;;;;;;7.63;3.50;;;9.00;91.50;;;;;;4981903;28;20607;-58
2022/11/08 07:02:58;;;;;;;12.33;3.77;;;9.00;91.40;;;;;;4982291;28;20472;-58
2022/11/08 07:05:26;;;;;;;8.57;3.07;;;8.90;90.70;;;;;;4983741;28;20959;-57
2022/11/08 07:07:52;;;;;;;4.50;2.93;;;8.90;91.80;;;;;;4990611;28;20460;-51
2022/11/08 07:10:19;;;;;;;5.63;2.70;;;9.00;90.70;;;;;;4982247;28;20504;-51
2022/11/08 07:12:49;;;;;;;2.93;2.63;;;9.00;89.90;;;;;;4986036;28;20488;-51
2022/11/08 07:15:16;;;;;;;6.90;3.27;;;9.10;88.80;;;;;;4977380;28;20464;-51
2022/11/08 07:17:43;;;;;;;4.03;2.80;;;9.10;88.60;;;;;;4987088;28;20548;-51
2022/11/08 07:20:10;;;;;;;4.13;2.60;;;9.20;88.10;;;;;;4981879;28;21047;-50
2022/11/08 07:22:37;;;;;;;6.90;3.97;;;9.20;87.90;;;;;;4977362;28;20487;-51
2022/11/08 07:25:04;;;;;;;14.27;8.67;;;9.40;86.70;;;;;;4989233;28;20504;-51
2022/11/08 07:27:31;;;;;;;12.83;7.20;;;9.80;85.40;;;;;;4992678;28;20982;-54
2022/11/08 07:29:59;;;;;;;16.17;5.03;;;10.30;94.10;;;;;;4978764;28;20891;-54
2022/11/08 07:32:26;;;;;;;6.13;4.20;;;10.50;99.70;;;;;;4984736;28;20981;-55
2022/11/08 07:34:52;;;;;;;6.90;3.80;;;10.80;99.90;;;;;;4991062;28;20993;-53
2022/11/08 07:37:19;;;;;;;11.27;3.83;;;10.90;99.90;;;;;;4985301;28;20527;-55
2022/11/08 07:39:45;;;;;;;6.37;3.90;;;10.80;99.90;;;;;;4984845;28;20464;-54
2022/11/08 07:42:12;;;;;;;5.43;3.03;;;11.00;99.90;;;;;;4986334;28;20516;-55
2022/11/08 07:44:38;;;;;;;9.20;2.93;;;11.10;99.90;;;;;;4998680;28;20461;-55
2022/11/08 07:47:06;;;;;;;6.73;3.50;;;11.10;99.90;;;;;;4993767;28;20465;-55
2022/11/08 07:49:34;;;;;;;7.53;3.47;;;11.20;99.90;;;;;;4988820;28;20504;-54
2022/11/08 07:52:01;;;;;;;5.40;3.10;;;11.30;99.90;;;;;;4982314;28;20606;-54
2022/11/08 07:54:28;;;;;;;4.40;2.77;;;11.30;99.90;;;;;;4975043;28;20574;-54
2022/11/08 07:56:54;;;;;;;8.83;3.73;;;11.30;99.90;;;;;;4977966;28;20516;-54
2022/11/08 07:59:21;;;;;;;6.57;3.40;;;11.50;99.90;;;;;;4985112;28;20492;-54
2022/11/08 08:01:47;;;;;;;12.30;3.90;;;11.70;99.90;;;;;;4987661;28;20512;-54
2022/11/08 08:04:15;;;;;;;6.23;3.70;;;11.60;99.90;;;;;;4984097;28;20974;-53
2022/11/08 08:06:42;;;;;;;5.87;3.07;;;11.50;99.90;;;;;;4984541;28;20540;-54
2022/11/08 08:09:08;;;;;;;4.33;3.50;;;11.50;99.90;;;;;;4987489;28;20496;-54
2022/11/08 08:11:35;;;;;;;8.40;3.30;;;11.60;99.90;;;;;;4982342;28;20476;-54
2022/11/08 08:14:02;;;;;;;4.20;3.17;;;11.80;99.90;;;;;;4985911;28;20469;-54
2022/11/08 08:16:28;;;;;;;14.23;2.80;;;12.00;99.90;;;;;;4978070;28;20487;-54
2022/11/08 08:18:55;;;;;;;9.03;3.20;;;12.00;99.90;;;;;;4981383;28;20489;-54
2022/11/08 08:21:23;;;;;;;10.87;3.70;;;12.10;99.90;;;;;;4984509;28;20811;-54
2022/11/08 08:23:49;;;;;;;8.67;3.30;;;12.30;99.90;;;;;;4979264;28;20461;-55
2022/11/08 08:26:16;;;;;;;7.10;3.50;;;12.60;75.80;;;;;;4980626;28;20874;-54
2022/11/08 08:28:42;;;;;;;10.47;3.07;;;12.70;91.90;;;;;;4981971;28;20468;-53
2022/11/08 08:31:09;;;;;;;11.40;2.63;;;13.10;34.30;;;;;;4982599;28;21084;-54
2022/11/08 08:33:36;;;;;;;8.30;3.40;;;14.10;81.10;;;;;;4985657;28;20523;-54
2022/11/08 08:36:03;;;;;;;13.10;3.20;;;14.70;99.90;;;;;;4989752;28;20460;-54
2022/11/08 08:38:32;;;;;;;8.07;3.10;;;14.70;99.90;;;;;;4989808;28;20484;-54
2022/11/08 08:40:59;;;;;;;9.73;3.20;;;14.90;99.90;;;;;;4980498;28;20578;-55
2022/11/08 08:43:27;;;;;;;4.47;2.47;;;15.30;99.90;;;;;;4989032;28;20910;-54
2022/11/08 08:45:54;;;;;;;6.33;3.10;;;15.20;99.90;;;;;;4984856;28;20552;-55
2022/11/08 08:48:21;;;;;;;4.30;2.67;;;15.00;99.90;;;;;;4984279;28;20488;-54
2022/11/08 08:50:47;;;;;;;6.63;2.80;;;15.00;99.90;;;;;;4987607;28;20570;-54
2022/11/08 08:53:14;;;;;;;12.80;3.17;;;14.80;99.90;;;;;;4985439;28;20461;-54
2022/11/08 08:55:42;;;;;;;6.90;3.20;;;14.20;99.90;;;;;;4979762;28;21050;-54
2022/11/08 08:58:09;;;;;;;6.97;3.30;;;13.70;82.10;;;;;;4987354;28;20481;-54
2022/11/08 09:00:36;;;;;;;5.67;2.90;;;13.30;64.70;;;;;;4994284;28;20516;-54
2022/11/08 09:03:03;;;;;;;5.57;3.07;;;13.20;49.60;;;;;;5004944;28;20472;-54
2022/11/08 09:05:30;;;;;;;5.60;3.03;;;13.20;43.70;;;;;;4998350;28;20515;-54
2022/11/08 09:07:57;;;;;;;4.77;2.70;;;13.10;41.40;;;;;;5004454;28;20461;-54
2022/11/08 09:10:23;;;;;;;7.20;3.13;;;12.90;37.60;;;;;;5000581;28;20468;-54
2022/11/08 09:12:51;;;;;;;9.70;3.13;;;12.90;31.10;;;;;;4992350;28;20492;-54
2022/11/08 09:15:18;;;;;;;4.90;2.97;;;12.90;26.00;;;;;;4989099;28;20492;-54
2022/11/08 09:17:45;;;;;;;9.20;2.97;;;13.00;26.90;;;;;;4985678;28;21018;-54
2022/11/08 09:20:13;;;;;;;5.37;3.10;;;13.10;31.20;;;;;;4986248;28;20986;-54
2022/11/08 09:22:39;;;;;;;7.50;2.80;;;13.10;30.30;;;;;;4989261;28;20469;-53
2022/11/08 09:25:07;;;;;;;8.93;3.63;;;13.30;32.30;;;;;;4984919;28;20504;-53
2022/11/08 09:27:33;;;;;;;5.33;2.57;;;13.80;53.90;;;;;;4983953;28;21633;-55
2022/11/08 09:30:01;;;;;;;2.30;2.00;;;14.60;91.60;;;;;;4977747;28;20998;-55
2022/11/08 09:32:28;;;;;;;4.70;2.73;;;15.50;99.90;;;;;;4977821;28;20508;-54
2022/11/08 09:34:55;;;;;;;7.73;2.90;;;16.40;99.90;;;;;;4974468;28;20454;-54
2022/11/08 09:37:22;;;;;;;6.77;3.10;;;17.00;99.90;;;;;;4983878;28;21093;-54
2022/11/08 09:39:48;;;;;;;4.93;2.60;;;17.60;99.90;;;;;;4980841;28;20560;-54
2022/11/08 09:42:34;;;;;;;5.37;2.00;;;17.90;40.60;;;;;;4982222;28;20531;-54
2022/11/08 09:45:15;;;;;;;4.70;2.27;;;18.20;56.80;;;;;;4983963;28;20546;-54
2022/11/08 09:47:43;;;;;;;11.40;4.07;;;17.60;55.90;;;;;;4982643;28;20499;-55
2022/11/08 09:50:17;;;;;;;10.97;2.50;;;18.20;68.10;;;;;;4979408;28;20552;-54
2022/11/08 09:52:49;;;;;;;3.87;2.33;;;18.80;74.80;;;;;;4990197;28;20938;-54
2022/11/08 09:55:22;;;;;;;10.43;2.77;;;19.00;83.60;;;;;;4989343;28;20507;-55
2022/11/08 09:57:59;;;;;;;5.30;2.20;;;18.50;69.30;;;;;;4984970;28;20484;-55
2022/11/08 10:00:28;;;;;;;4.97;1.97;;;17.70;55.50;;;;;;4992358;28;20890;-55
2022/11/08 10:02:56;;;;;;;4.00;2.30;;;16.80;31.00;;;;;;4993541;28;20483;-54
2022/11/08 10:05:24;;;;;;;2.93;2.30;;;16.60;76.60;;;;;;4993257;28;21017;-54
2022/11/08 10:08:00;;;;;;;9.30;2.53;;;16.40;99.90;;;;;;4986008;28;20893;-54
2022/11/08 10:10:49;;;;;;;6.27;2.23;;;16.70;72.90;;;;;;4980108;28;20547;-53
2022/11/08 10:13:22;;;;;;;3.13;1.80;;;16.10;99.90;;;;;;4982500;28;20496;-53
2022/11/08 10:15:59;;;;;;;13.93;2.17;;;15.90;99.90;;;;;;4992947;28;20465;-54
2022/11/08 10:18:39;;;;;;;3.53;2.20;;;15.70;99.90;;;;;;4988783;28;20574;-51
2022/11/08 10:21:14;;;;;;;7.17;2.50;;;15.50;99.90;;;;;;4987497;28;20488;-51
2022/11/08 10:23:44;;;;;;;12.00;2.57;;;15.20;99.90;;;;;;4993618;28;20444;-51
2022/11/08 10:26:16;;;;;;;2.77;1.70;;;15.50;99.90;;;;;;4986891;28;20465;-51
2022/11/08 10:28:48;;;;;;;6.23;1.93;;;15.60;99.90;;;;;;4987200;28;20465;-51
2022/11/08 10:31:19;;;;;;;7.10;2.60;;;16.10;99.90;;;;;;4993183;28;20892;-52
2022/11/08 10:33:49;;;;;;;4.90;1.80;;;15.80;99.90;;;;;;4992507;28;20496;-50
2022/11/08 10:36:20;;;;;;;5.17;2.33;;;15.60;99.90;;;;;;4986013;28;20503;-50
2022/11/08 10:38:56;;;;;;;6.73;2.17;;;15.40;99.90;;;;;;4992570;28;20511;-50
2022/11/08 10:41:28;;;;;;;5.07;1.83;;;15.20;99.90;;;;;;4983751;28;20495;-50
2022/11/08 10:44:01;;;;;;;3.77;2.37;;;15.10;99.90;;;;;;4990928;28;20465;-50
2022/11/08 10:46:39;;;;;;;6.30;2.50;;;15.20;99.90;;;;;;4983335;28;20484;-50
2022/11/08 10:49:16;;;;;;;5.67;2.77;;;15.30;99.90;;;;;;4977244;28;20492;-50
2022/11/08 10:51:44;;;;;;;3.93;2.20;;;15.10;99.90;;;;;;4991301;28;21033;-50
2022/11/08 10:54:39;;;;;;;4.87;2.10;;;15.30;99.90;;;;;;4992733;28;20484;-50
2022/11/08 10:57:06;;;;;;;3.63;2.40;;;15.40;99.90;;;;;;4983356;28;20499;-50
2022/11/08 10:59:33;;;;;;;2.40;1.80;;;15.20;99.90;;;;;;4990725;28;21009;-50
2022/11/08 11:02:02;;;;;;;3.93;1.80;;;15.10;99.90;;;;;;4982302;28;20524;-51
2022/11/08 11:04:30;;;;;;;5.43;1.93;;;15.40;99.90;;;;;;4992948;28;20828;-51
2022/11/08 11:07:01;;;;;;;5.30;2.40;;;16.00;99.90;;;;;;4993139;28;20572;-50
2022/11/08 11:09:28;;;;;;;6.30;2.20;;;17.10;20.20;;;;;;4992044;28;20504;-50
2022/11/08 11:11:58;;;;;;;3.43;2.00;;;17.70;56.60;;;;;;4990803;28;20563;-51
2022/11/08 11:14:25;;;;;;;4.60;2.47;;;17.20;49.90;;;;;;4992907;28;20997;-50
2022/11/08 11:16:56;;;;;;;6.10;1.80;;;16.90;37.90;;;;;;4993033;28;20511;-50
2022/11/08 11:19:25;;;;;;;8.73;2.13;;;17.70;52.20;;;;;;4982048;28;20494;-50
2022/11/08 11:21:56;;;;;;;4.93;2.13;;;17.50;57.10;;;;;;4991153;28;20481;-51
2022/11/08 11:24:23;;;;;;;4.13;1.87;;;17.10;40.60;;;;;;4991304;28;21004;-51
2022/11/08 11:27:01;;;;;;;7.33;1.97;;;16.50;99.90;;;;;;4986196;28;20883;-50
2022/11/08 11:29:30;;;;;;;8.27;2.13;;;16.30;99.90;;;;;;4991991;28;20891;-50
2022/11/08 11:32:18;;;;;;;4.30;1.87;;;16.20;99.90;;;;;;4988374;28;20507;-50
2022/11/08 11:34:52;;;;;;;2.80;1.60;;;16.10;99.90;;;;;;4990731;28;20480;-50
2022/11/08 11:37:25;;;;;;;4.20;2.13;;;16.10;99.90;;;;;;4978818;28;21025;-50
2022/11/08 11:40:01;;;;;;;3.57;1.87;;;16.20;99.90;;;;;;4986764;28;20531;-51
2022/11/08 11:42:34;;;;;;;4.57;1.60;;;16.10;99.90;;;;;;4985549;28;20491;-50
2022/11/08 11:45:09;;;;;;;5.23;1.87;;;16.20;99.90;;;;;;4980673;28;20492;-52
2022/11/08 11:47:43;;;;;;;1.80;1.70;;;16.10;99.90;;;;;;4990279;28;21001;-51
2022/11/08 11:50:20;;;;;;;7.83;1.80;;;16.10;99.90;;;;;;5000683;28;20460;-53
2022/11/08 11:52:47;;;;;;;2.90;1.57;;;16.10;91.90;;;;;;4999995;28;20476;-51
2022/11/08 11:55:15;;;;;;;3.23;1.73;;;16.60;21.00;;;;;;4994084;28;20460;-51
2022/11/08 11:57:54;;;;;;;9.90;4.03;;;16.90;37.70;;;;;;4993346;28;20938;-51
2022/11/08 12:00:21;;;;;;;4.87;2.00;;;17.20;52.40;;;;;;4984483;28;20526;-50
2022/11/08 12:03:16;;;;;;;4.00;1.40;;;17.70;63.90;;;;;;4983580;28;20552;-51
2022/11/08 12:06:04;;;;;;;4.37;2.07;;;17.20;60.40;;;;;;4986913;28;20503;-50
2022/11/08 12:08:42;;;;;;;3.23;1.70;;;17.20;53.30;;;;;;4990342;28;20560;-50
2022/11/08 12:11:26;;;;;;;3.50;1.97;;;17.30;55.10;;;;;;4982059;28;20853;-52
2022/11/08 12:14:13;;;;;;;5.97;2.73;;;17.40;63.40;;;;;;4983045;28;20524;-51
2022/11/08 12:16:47;;;;;;;5.07;2.57;;;17.40;63.50;;;;;;4991536;28;20460;-50
2022/11/08 12:19:30;;;;;;;4.30;2.87;;;17.10;60.10;;;;;;4990041;28;20519;-50
2022/11/08 12:22:05;;;;;;;5.63;2.30;;;17.00;56.30;;;;;;4979763;28;20539;-50
2022/11/08 12:24:43;;;;;;;6.60;3.23;;;16.70;54.20;;;;;;4986099;28;20532;-51
2022/11/08 12:27:20;;;;;;;4.50;1.70;;;16.60;55.50;;;;;;4981874;28;20475;-50
2022/11/08 12:29:53;;;;;;;4.47;2.17;;;16.70;52.60;;;;;;4979968;28;21049;-50
2022/11/08 12:32:37;;;;;;;2.73;2.17;;;16.50;50.40;;;;;;4986709;28;20899;-50
2022/11/08 12:35:18;;;;;;;2.20;2.00;;;16.60;47.90;;;;;;4988495;28;20821;-50
2022/11/08 12:37:57;;;;;;;3.70;1.67;;;16.60;49.20;;;;;;4988830;28;20475;-50
2022/11/08 12:40:31;;;;;;;4.97;1.97;;;16.70;51.50;;;;;;4990138;28;20550;-51
2022/11/08 12:43:11;;;;;;;5.50;1.80;;;16.80;56.20;;;;;;4982128;28;20555;-50
2022/11/08 12:46:06;;;;;;;1.60;1.50;;;17.00;60.80;;;;;;4983323;28;20468;-51
2022/11/08 12:48:47;;;;;;;1.70;1.60;;;17.70;69.20;;;;;;4989654;28;20515;-51
2022/11/08 12:51:22;;;;;;;5.00;2.37;;;17.70;70.40;;;;;;4976483;28;20597;-51
2022/11/08 12:54:02;;;;;;;2.83;1.50;;;17.50;69.20;;;;;;4980889;28;20460;-51
2022/11/08 12:56:36;;;;;;;7.40;1.90;;;17.50;69.50;;;;;;4984749;28;20469;-51
2022/11/08 12:59:04;;;;;;;8.00;2.30;;;17.50;70.60;;;;;;4974590;28;20485;-51
2022/11/08 13:01:31;;;;;;;4.63;1.80;;;17.70;71.80;;;;;;4981903;28;20481;-50
2022/11/08 13:04:39;;;;;;;5.70;1.70;;;17.70;77.20;;;;;;4978303;28;20508;-51
2022/11/08 13:07:17;;;;;;;9.60;3.10;;;18.10;83.40;;;;;;4971955;28;20465;-51
2022/11/08 13:09:51;;;;;;;2.80;1.63;;;18.00;79.80;;;;;;4979544;28;20691;-55
2022/11/08 13:12:43;;;;;;;2.87;1.93;;;17.70;82.40;;;;;;4987460;28;21009;-51
2022/11/08 13:15:16;;;;;;;3.03;1.77;;;17.50;75.20;;;;;;4980434;28;20547;-50
2022/11/08 13:18:31;;;;;;;5.37;1.83;;;17.20;74.10;;;;;;4984106;28;21015;-50
2022/11/08 13:20:58;;;;;;;5.40;1.87;;;17.30;69.10;;;;;;4984277;28;21010;-50